Terminal Aerodrome Forecast
Issued by NWS

Home | Current Version | Previous Version | Text Only | Print | Product List | Glossary On
Versions: 1 2 3 4 5 6 7 8 9 10 11 12 13 14 15 16 17 18 19 20 21 22 23
335
FTPA31 PHFO 301733
TAFHNY
TAF
PHNY 301733Z 3018/3118 05004KT P6SM SKC
     FM302000 32008KT P6SM FEW010 SCT025
     FM310000 02012KT P6SM FEW010 SCT025 BKN040
     FM310600 05016KT P6SM FEW025 SCT040
     FM311200 05008KT P6SM FEW025 SCT040=

USA.gov is the U.S. government's official web portal to all federal, state and local government web resources and services.